sensor_id;sensor_type;location;lat;lon;timestamp;P1;durP1;ratioP1;P2;durP2;ratioP2
20972;SDS011;10645;52.370;13.314;2023-07-31T00:00:50;8.13;;;2.22;;
20972;SDS011;10645;52.370;13.314;2023-07-31T00:03:16;1.83;;;0.68;;
20972;SDS011;10645;52.370;13.314;2023-07-31T00:05:42;1.27;;;0.63;;
20972;SDS011;10645;52.370;13.314;2023-07-31T00:08:09;2.15;;;0.95;;
20972;SDS011;10645;52.370;13.314;2023-07-31T00:10:35;0.88;;;0.63;;
20972;SDS011;10645;52.370;13.314;2023-07-31T00:13:01;0.85;;;0.85;;
20972;SDS011;10645;52.370;13.314;2023-07-31T00:15:27;0.93;;;0.73;;
20972;SDS011;10645;52.370;13.314;2023-07-31T00:17:53;0.70;;;0.60;;
20972;SDS011;10645;52.370;13.314;2023-07-31T00:20:19;0.70;;;0.70;;
20972;SDS011;10645;52.370;13.314;2023-07-31T00:22:45;1.42;;;1.05;;
20972;SDS011;10645;52.370;13.314;2023-07-31T00:25:12;10.43;;;1.50;;
20972;SDS011;10645;52.370;13.314;2023-07-31T00:27:38;1.38;;;1.05;;
20972;SDS011;10645;52.370;13.314;2023-07-31T00:30:04;0.85;;;0.75;;
20972;SDS011;10645;52.370;13.314;2023-07-31T00:32:32;1.30;;;0.57;;
20972;SDS011;10645;52.370;13.314;2023-07-31T00:34:59;1.27;;;0.82;;
20972;SDS011;10645;52.370;13.314;2023-07-31T00:37:25;0.82;;;0.82;;
20972;SDS011;10645;52.370;13.314;2023-07-31T00:39:51;1.40;;;1.30;;
20972;SDS011;10645;52.370;13.314;2023-07-31T00:42:17;0.65;;;0.65;;
20972;SDS011;10645;52.370;13.314;2023-07-31T00:44:43;1.48;;;0.60;;
20972;SDS011;10645;52.370;13.314;2023-07-31T00:47:09;0.70;;;0.70;;
20972;SDS011;10645;52.370;13.314;2023-07-31T00:49:35;1.17;;;0.60;;
20972;SDS011;10645;52.370;13.314;2023-07-31T00:52:02;1.17;;;1.08;;
20972;SDS011;10645;52.370;13.314;2023-07-31T00:54:28;1.25;;;1.15;;
20972;SDS011;10645;52.370;13.314;2023-07-31T00:56:54;1.15;;;0.77;;
20972;SDS011;10645;52.370;13.314;2023-07-31T00:59:21;0.68;;;0.68;;
20972;SDS011;10645;52.370;13.314;2023-07-31T01:01:47;1.55;;;1.02;;
20972;SDS011;10645;52.370;13.314;2023-07-31T01:04:13;4.72;;;1.58;;
20972;SDS011;10645;52.370;13.314;2023-07-31T01:06:44;1.15;;;1.08;;
20972;SDS011;10645;52.370;13.314;2023-07-31T01:09:35;1.75;;;1.65;;
20972;SDS011;10645;52.370;13.314;2023-07-31T01:12:07;0.60;;;0.60;;
20972;SDS011;10645;52.370;13.314;2023-07-31T01:14:34;2.25;;;1.27;;
20972;SDS011;10645;52.370;13.314;2023-07-31T01:17:00;1.50;;;0.75;;
20972;SDS011;10645;52.370;13.314;2023-07-31T01:19:26;1.23;;;1.23;;
20972;SDS011;10645;52.370;13.314;2023-07-31T01:21:58;1.02;;;0.95;;
20972;SDS011;10645;52.370;13.314;2023-07-31T01:24:55;1.70;;;1.60;;
20972;SDS011;10645;52.370;13.314;2023-07-31T01:27:39;0.65;;;0.65;;
20972;SDS011;10645;52.370;13.314;2023-07-31T01:30:21;1.85;;;0.93;;
20972;SDS011;10645;52.370;13.314;2023-07-31T01:32:53;1.35;;;0.85;;
20972;SDS011;10645;52.370;13.314;2023-07-31T01:35:21;1.85;;;0.65;;
20972;SDS011;10645;52.370;13.314;2023-07-31T01:37:47;1.13;;;1.00;;
20972;SDS011;10645;52.370;13.314;2023-07-31T01:40:14;1.38;;;1.27;;
20972;SDS011;10645;52.370;13.314;2023-07-31T01:42:40;2.35;;;1.30;;
20972;SDS011;10645;52.370;13.314;2023-07-31T01:45:06;1.60;;;1.50;;
20972;SDS011;10645;52.370;13.314;2023-07-31T01:47:32;1.30;;;1.17;;
20972;SDS011;10645;52.370;13.314;2023-07-31T01:49:58;2.45;;;1.63;;
20972;SDS011;10645;52.370;13.314;2023-07-31T01:52:24;2.22;;;1.50;;
20972;SDS011;10645;52.370;13.314;2023-07-31T01:54:51;1.42;;;1.23;;
20972;SDS011;10645;52.370;13.314;2023-07-31T01:57:17;1.35;;;1.25;;
20972;SDS011;10645;52.370;13.314;2023-07-31T01:59:44;1.30;;;1.20;;
20972;SDS011;10645;52.370;13.314;2023-07-31T02:02:10;0.60;;;0.60;;
20972;SDS011;10645;52.370;13.314;2023-07-31T02:04:36;1.20;;;1.08;;
20972;SDS011;10645;52.370;13.314;2023-07-31T02:07:04;1.42;;;1.33;;
20972;SDS011;10645;52.370;13.314;2023-07-31T02:09:30;1.42;;;1.33;;
20972;SDS011;10645;52.370;13.314;2023-07-31T02:11:56;0.98;;;0.88;;
20972;SDS011;10645;52.370;13.314;2023-07-31T02:14:22;1.83;;;1.52;;
20972;SDS011;10645;52.370;13.314;2023-07-31T02:16:48;1.25;;;1.15;;
20972;SDS011;10645;52.370;13.314;2023-07-31T02:19:14;1.50;;;1.40;;
20972;SDS011;10645;52.370;13.314;2023-07-31T02:21:40;2.17;;;1.42;;
20972;SDS011;10645;52.370;13.314;2023-07-31T02:24:06;8.63;;;2.80;;
20972;SDS011;10645;52.370;13.314;2023-07-31T02:26:32;2.65;;;1.20;;
20972;SDS011;10645;52.370;13.314;2023-07-31T02:28:59;1.27;;;1.17;;
20972;SDS011;10645;52.370;13.314;2023-07-31T02:31:25;1.88;;;1.77;;
20972;SDS011;10645;52.370;13.314;2023-07-31T02:33:52;2.00;;;1.52;;
20972;SDS011;10645;52.370;13.314;2023-07-31T02:36:18;2.40;;;1.48;;
20972;SDS011;10645;52.370;13.314;2023-07-31T02:38:44;4.50;;;1.45;;
20972;SDS011;10645;52.370;13.314;2023-07-31T02:41:10;2.42;;;1.88;;
20972;SDS011;10645;52.370;13.314;2023-07-31T02:43:36;1.75;;;1.65;;
20972;SDS011;10645;52.370;13.314;2023-07-31T02:46:02;2.47;;;1.63;;
20972;SDS011;10645;52.370;13.314;2023-07-31T02:48:28;2.03;;;1.48;;
20972;SDS011;10645;52.370;13.314;2023-07-31T02:50:54;1.27;;;1.23;;
20972;SDS011;10645;52.370;13.314;2023-07-31T02:53:21;4.50;;;2.00;;
20972;SDS011;10645;52.370;13.314;2023-07-31T02:55:48;1.80;;;1.08;;
20972;SDS011;10645;52.370;13.314;2023-07-31T02:58:14;4.70;;;1.40;;
20972;SDS011;10645;52.370;13.314;2023-07-31T03:00:43;1.52;;;1.42;;
20972;SDS011;10645;52.370;13.314;2023-07-31T03:03:10;1.98;;;1.88;;
20972;SDS011;10645;52.370;13.314;2023-07-31T03:05:36;1.75;;;1.65;;
20972;SDS011;10645;52.370;13.314;2023-07-31T03:08:03;1.95;;;1.75;;
20972;SDS011;10645;52.370;13.314;2023-07-31T03:10:29;1.35;;;1.25;;
20972;SDS011;10645;52.370;13.314;2023-07-31T03:12:55;1.67;;;1.30;;
20972;SDS011;10645;52.370;13.314;2023-07-31T03:15:21;1.70;;;1.60;;
20972;SDS011;10645;52.370;13.314;2023-07-31T03:17:47;1.55;;;1.45;;
20972;SDS011;10645;52.370;13.314;2023-07-31T03:20:13;1.33;;;1.23;;
20972;SDS011;10645;52.370;13.314;2023-07-31T03:22:39;5.55;;;2.90;;
20972;SDS011;10645;52.370;13.314;2023-07-31T03:25:06;2.15;;;1.58;;
20972;SDS011;10645;52.370;13.314;2023-07-31T03:27:32;2.10;;;1.98;;
20972;SDS011;10645;52.370;13.314;2023-07-31T03:29:59;5.88;;;1.63;;
20972;SDS011;10645;52.370;13.314;2023-07-31T03:32:26;1.55;;;1.45;;
20972;SDS011;10645;52.370;13.314;2023-07-31T03:34:52;1.65;;;1.55;;
20972;SDS011;10645;52.370;13.314;2023-07-31T03:37:19;1.15;;;1.00;;
20972;SDS011;10645;52.370;13.314;2023-07-31T03:39:45;1.15;;;1.05;;
20972;SDS011;10645;52.370;13.314;2023-07-31T03:42:11;26.23;;;18.38;;
20972;SDS011;10645;52.370;13.314;2023-07-31T03:44:37;40.72;;;29.73;;
20972;SDS011;10645;52.370;13.314;2023-07-31T03:47:04;33.97;;;25.98;;
20972;SDS011;10645;52.370;13.314;2023-07-31T03:49:30;19.20;;;15.68;;
20972;SDS011;10645;52.370;13.314;2023-07-31T03:51:56;27.30;;;18.30;;
20972;SDS011;10645;52.370;13.314;2023-07-31T03:54:23;60.53;;;35.03;;
20972;SDS011;10645;52.370;13.314;2023-07-31T03:56:49;23.25;;;13.45;;
20972;SDS011;10645;52.370;13.314;2023-07-31T03:59:15;4.05;;;3.67;;
20972;SDS011;10645;52.370;13.314;2023-07-31T04:01:41;2.50;;;2.30;;
20972;SDS011;10645;52.370;13.314;2023-07-31T04:04:07;1.90;;;1.33;;
20972;SDS011;10645;52.370;13.314;2023-07-31T04:06:33;1.60;;;1.20;;
20972;SDS011;10645;52.370;13.314;2023-07-31T04:08:59;1.25;;;1.10;;
20972;SDS011;10645;52.370;13.314;2023-07-31T04:11:25;2.10;;;1.90;;
20972;SDS011;10645;52.370;13.314;2023-07-31T04:13:51;1.65;;;1.45;;
20972;SDS011;10645;52.370;13.314;2023-07-31T04:16:17;1.40;;;1.20;;
20972;SDS011;10645;52.370;13.314;2023-07-31T04:18:44;1.33;;;1.20;;
20972;SDS011;10645;52.370;13.314;2023-07-31T04:21:10;2.47;;;1.38;;
20972;SDS011;10645;52.370;13.314;2023-07-31T04:23:36;2.42;;;2.22;;
20972;SDS011;10645;52.370;13.314;2023-07-31T04:26:02;51.67;;;36.70;;
20972;SDS011;10645;52.370;13.314;2023-07-31T04:28:28;23.95;;;17.85;;
20972;SDS011;10645;52.370;13.314;2023-07-31T04:30:57;6.63;;;5.25;;
20972;SDS011;10645;52.370;13.314;2023-07-31T04:33:23;2.90;;;2.20;;
20972;SDS011;10645;52.370;13.314;2023-07-31T04:35:52;3.72;;;1.60;;
20972;SDS011;10645;52.370;13.314;2023-07-31T04:38:19;2.67;;;1.10;;
20972;SDS011;10645;52.370;13.314;2023-07-31T04:40:46;2.05;;;1.00;;
20972;SDS011;10645;52.370;13.314;2023-07-31T04:43:13;6.43;;;2.38;;
20972;SDS011;10645;52.370;13.314;2023-07-31T04:45:39;3.00;;;2.80;;
20972;SDS011;10645;52.370;13.314;2023-07-31T04:48:07;1.70;;;1.60;;
20972;SDS011;10645;52.370;13.314;2023-07-31T04:50:33;3.78;;;2.22;;
20972;SDS011;10645;52.370;13.314;2023-07-31T04:52:59;1.00;;;1.00;;
20972;SDS011;10645;52.370;13.314;2023-07-31T04:55:25;1.95;;;1.55;;
20972;SDS011;10645;52.370;13.314;2023-07-31T04:57:51;2.20;;;1.98;;
20972;SDS011;10645;52.370;13.314;2023-07-31T05:00:18;3.45;;;1.95;;
20972;SDS011;10645;52.370;13.314;2023-07-31T05:02:44;2.58;;;1.45;;
20972;SDS011;10645;52.370;13.314;2023-07-31T05:05:10;1.63;;;1.23;;
20972;SDS011;10645;52.370;13.314;2023-07-31T05:07:36;2.15;;;1.25;;
20972;SDS011;10645;52.370;13.314;2023-07-31T05:10:02;1.48;;;1.38;;
20972;SDS011;10645;52.370;13.314;2023-07-31T05:12:29;1.92;;;1.30;;
20972;SDS011;10645;52.370;13.314;2023-07-31T05:14:55;1.63;;;1.20;;
20972;SDS011;10645;52.370;13.314;2023-07-31T05:17:21;1.48;;;1.38;;
20972;SDS011;10645;52.370;13.314;2023-07-31T05:19:47;3.80;;;1.30;;
20972;SDS011;10645;52.370;13.314;2023-07-31T05:22:13;0.73;;;0.73;;
20972;SDS011;10645;52.370;13.314;2023-07-31T05:24:39;1.83;;;1.42;;
20972;SDS011;10645;52.370;13.314;2023-07-31T05:27:05;1.80;;;1.38;;
20972;SDS011;10645;52.370;13.314;2023-07-31T05:29:31;0.93;;;0.93;;
20972;SDS011;10645;52.370;13.314;2023-07-31T05:31:57;1.45;;;1.35;;
20972;SDS011;10645;52.370;13.314;2023-07-31T05:34:24;1.50;;;1.40;;
20972;SDS011;10645;52.370;13.314;2023-07-31T05:40:37;1.20;;;1.00;;
20972;SDS011;10645;52.370;13.314;2023-07-31T05:43:03;1.33;;;0.75;;
20972;SDS011;10645;52.370;13.314;2023-07-31T05:45:29;1.58;;;1.30;;
20972;SDS011;10645;52.370;13.314;2023-07-31T05:47:55;1.77;;;1.67;;
20972;SDS011;10645;52.370;13.314;2023-07-31T05:50:21;1.50;;;1.33;;
20972;SDS011;10645;52.370;13.314;2023-07-31T05:52:47;2.85;;;1.70;;
20972;SDS011;10645;52.370;13.314;2023-07-31T05:55:13;1.27;;;1.15;;
20972;SDS011;10645;52.370;13.314;2023-07-31T05:57:40;5.13;;;2.05;;
20972;SDS011;10645;52.370;13.314;2023-07-31T06:00:06;1.33;;;1.33;;
20972;SDS011;10645;52.370;13.314;2023-07-31T06:02:33;1.63;;;1.13;;
20972;SDS011;10645;52.370;13.314;2023-07-31T06:05:02;2.17;;;1.45;;
20972;SDS011;10645;52.370;13.314;2023-07-31T06:07:31;1.20;;;1.15;;
20972;SDS011;10645;52.370;13.314;2023-07-31T06:09:57;1.67;;;1.50;;
20972;SDS011;10645;52.370;13.314;2023-07-31T06:12:30;1.65;;;0.80;;
20972;SDS011;10645;52.370;13.314;2023-07-31T06:14:57;0.68;;;0.68;;
20972;SDS011;10645;52.370;13.314;2023-07-31T06:17:23;1.05;;;0.82;;
20972;SDS011;10645;52.370;13.314;2023-07-31T06:19:49;1.77;;;1.30;;
20972;SDS011;10645;52.370;13.314;2023-07-31T06:22:16;1.55;;;1.40;;
20972;SDS011;10645;52.370;13.314;2023-07-31T06:24:42;1.48;;;1.38;;
20972;SDS011;10645;52.370;13.314;2023-07-31T06:27:08;1.25;;;1.13;;
20972;SDS011;10645;52.370;13.314;2023-07-31T06:29:34;1.60;;;0.90;;
20972;SDS011;10645;52.370;13.314;2023-07-31T06:32:00;1.63;;;1.45;;
20972;SDS011;10645;52.370;13.314;2023-07-31T06:34:27;2.53;;;1.13;;
20972;SDS011;10645;52.370;13.314;2023-07-31T06:36:53;0.80;;;0.80;;
20972;SDS011;10645;52.370;13.314;2023-07-31T06:39:19;1.42;;;1.33;;
20972;SDS011;10645;52.370;13.314;2023-07-31T06:41:45;7.68;;;1.40;;
20972;SDS011;10645;52.370;13.314;2023-07-31T06:44:11;8.70;;;1.77;;
20972;SDS011;10645;52.370;13.314;2023-07-31T06:46:37;0.73;;;0.73;;
20972;SDS011;10645;52.370;13.314;2023-07-31T06:49:03;1.60;;;1.50;;
20972;SDS011;10645;52.370;13.314;2023-07-31T06:51:29;9.13;;;2.20;;
20972;SDS011;10645;52.370;13.314;2023-07-31T06:53:57;2.17;;;1.30;;
20972;SDS011;10645;52.370;13.314;2023-07-31T06:56:23;1.13;;;0.75;;
20972;SDS011;10645;52.370;13.314;2023-07-31T06:58:49;1.95;;;1.80;;
20972;SDS011;10645;52.370;13.314;2023-07-31T07:01:16;5.97;;;1.95;;
20972;SDS011;10645;52.370;13.314;2023-07-31T07:03:42;0.93;;;0.93;;
20972;SDS011;10645;52.370;13.314;2023-07-31T07:06:08;2.80;;;1.00;;
20972;SDS011;10645;52.370;13.314;2023-07-31T07:08:34;0.70;;;0.70;;
20972;SDS011;10645;52.370;13.314;2023-07-31T07:11:00;1.50;;;1.40;;
20972;SDS011;10645;52.370;13.314;2023-07-31T07:13:26;1.92;;;0.77;;
20972;SDS011;10645;52.370;13.314;2023-07-31T07:15:52;2.40;;;0.88;;
20972;SDS011;10645;52.370;13.314;2023-07-31T07:18:18;1.27;;;0.95;;
20972;SDS011;10645;52.370;13.314;2023-07-31T07:20:49;2.88;;;1.95;;
20972;SDS011;10645;52.370;13.314;2023-07-31T07:23:15;1.13;;;1.13;;
20972;SDS011;10645;52.370;13.314;2023-07-31T07:25:42;1.17;;;1.13;;
20972;SDS011;10645;52.370;13.314;2023-07-31T07:28:09;0.52;;;0.52;;
20972;SDS011;10645;52.370;13.314;2023-07-31T07:30:35;1.38;;;1.27;;
20972;SDS011;10645;52.370;13.314;2023-07-31T07:33:02;1.15;;;1.05;;
20972;SDS011;10645;52.370;13.314;2023-07-31T07:35:28;2.50;;;1.23;;
20972;SDS011;10645;52.370;13.314;2023-07-31T07:37:54;4.35;;;1.33;;
20972;SDS011;10645;52.370;13.314;2023-07-31T07:40:20;1.55;;;1.10;;
20972;SDS011;10645;52.370;13.314;2023-07-31T07:42:46;4.35;;;2.20;;
20972;SDS011;10645;52.370;13.314;2023-07-31T07:45:13;1.65;;;1.17;;
20972;SDS011;10645;52.370;13.314;2023-07-31T07:47:40;1.30;;;1.27;;
20972;SDS011;10645;52.370;13.314;2023-07-31T07:50:06;2.58;;;1.33;;
20972;SDS011;10645;52.370;13.314;2023-07-31T07:52:33;2.20;;;1.50;;
20972;SDS011;10645;52.370;13.314;2023-07-31T07:54:59;1.25;;;1.15;;
20972;SDS011;10645;52.370;13.314;2023-07-31T07:57:26;2.50;;;1.13;;
20972;SDS011;10645;52.370;13.314;2023-07-31T07:59:52;1.95;;;1.85;;
20972;SDS011;10645;52.370;13.314;2023-07-31T08:02:18;2.10;;;2.00;;
20972;SDS011;10645;52.370;13.314;2023-07-31T08:04:44;1.08;;;1.08;;
20972;SDS011;10645;52.370;13.314;2023-07-31T08:07:11;1.52;;;0.95;;
20972;SDS011;10645;52.370;13.314;2023-07-31T08:09:38;0.98;;;0.98;;
20972;SDS011;10645;52.370;13.314;2023-07-31T08:12:04;1.80;;;1.48;;
20972;SDS011;10645;52.370;13.314;2023-07-31T08:14:31;0.85;;;0.85;;
20972;SDS011;10645;52.370;13.314;2023-07-31T08:16:57;2.03;;;1.42;;
20972;SDS011;10645;52.370;13.314;2023-07-31T08:19:23;1.17;;;0.75;;
20972;SDS011;10645;52.370;13.314;2023-07-31T08:21:49;2.33;;;1.40;;
20972;SDS011;10645;52.370;13.314;2023-07-31T08:24:15;1.33;;;1.25;;
20972;SDS011;10645;52.370;13.314;2023-07-31T08:26:42;1.27;;;1.05;;
20972;SDS011;10645;52.370;13.314;2023-07-31T08:29:08;2.08;;;1.27;;
20972;SDS011;10645;52.370;13.314;2023-07-31T08:31:34;3.72;;;1.95;;
20972;SDS011;10645;52.370;13.314;2023-07-31T08:34:00;2.63;;;2.20;;
20972;SDS011;10645;52.370;13.314;2023-07-31T08:36:26;1.27;;;1.25;;
20972;SDS011;10645;52.370;13.314;2023-07-31T08:38:53;3.58;;;0.88;;
20972;SDS011;10645;52.370;13.314;2023-07-31T08:41:19;1.63;;;1.52;;
20972;SDS011;10645;52.370;13.314;2023-07-31T08:43:45;1.42;;;1.33;;
20972;SDS011;10645;52.370;13.314;2023-07-31T08:46:12;2.53;;;1.45;;
20972;SDS011;10645;52.370;13.314;2023-07-31T08:48:41;0.88;;;0.88;;
20972;SDS011;10645;52.370;13.314;2023-07-31T08:51:08;1.75;;;1.30;;
20972;SDS011;10645;52.370;13.314;2023-07-31T08:53:35;0.95;;;0.93;;
20972;SDS011;10645;52.370;13.314;2023-07-31T08:56:01;0.40;;;0.40;;
20972;SDS011;10645;52.370;13.314;2023-07-31T08:58:30;1.90;;;1.35;;
20972;SDS011;10645;52.370;13.314;2023-07-31T09:00:58;1.75;;;0.85;;
20972;SDS011;10645;52.370;13.314;2023-07-31T09:03:27;0.60;;;0.50;;
20972;SDS011;10645;52.370;13.314;2023-07-31T09:05:56;0.50;;;0.50;;
20972;SDS011;10645;52.370;13.314;2023-07-31T09:08:24;0.63;;;0.52;;
20972;SDS011;10645;52.370;13.314;2023-07-31T09:10:58;0.50;;;0.50;;
20972;SDS011;10645;52.370;13.314;2023-07-31T09:13:25;0.20;;;0.20;;
20972;SDS011;10645;52.370;13.314;2023-07-31T09:15:52;0.55;;;0.40;;
20972;SDS011;10645;52.370;13.314;2023-07-31T09:18:18;1.83;;;0.40;;
20972;SDS011;10645;52.370;13.314;2023-07-31T09:21:06;0.38;;;0.38;;
20972;SDS011;10645;52.370;13.314;2023-07-31T09:23:42;0.17;;;0.17;;
20972;SDS011;10645;52.370;13.314;2023-07-31T09:26:10;0.43;;;0.43;;
20972;SDS011;10645;52.370;13.314;2023-07-31T09:28:36;0.40;;;0.40;;
20972;SDS011;10645;52.370;13.314;2023-07-31T09:31:02;0.13;;;0.13;;
20972;SDS011;10645;52.370;13.314;2023-07-31T09:33:28;0.30;;;0.30;;
20972;SDS011;10645;52.370;13.314;2023-07-31T09:35:58;0.50;;;0.50;;
20972;SDS011;10645;52.370;13.314;2023-07-31T09:38:25;1.27;;;0.98;;
20972;SDS011;10645;52.370;13.314;2023-07-31T09:40:51;0.68;;;0.68;;
20972;SDS011;10645;52.370;13.314;2023-07-31T09:43:21;0.68;;;0.68;;
20972;SDS011;10645;52.370;13.314;2023-07-31T09:45:47;2.15;;;1.45;;
20972;SDS011;10645;52.370;13.314;2023-07-31T09:48:14;1.77;;;1.67;;
20972;SDS011;10645;52.370;13.314;2023-07-31T09:50:42;1.67;;;1.38;;
20972;SDS011;10645;52.370;13.314;2023-07-31T09:53:12;0.93;;;0.88;;
20972;SDS011;10645;52.370;13.314;2023-07-31T09:55:39;6.40;;;1.58;;
20972;SDS011;10645;52.370;13.314;2023-07-31T09:58:07;1.33;;;0.73;;
20972;SDS011;10645;52.370;13.314;2023-07-31T10:00:34;1.20;;;1.10;;
20972;SDS011;10645;52.370;13.314;2023-07-31T10:03:01;1.90;;;1.52;;
20972;SDS011;10645;52.370;13.314;2023-07-31T10:05:31;8.77;;;2.38;;
20972;SDS011;10645;52.370;13.314;2023-07-31T10:08:03;1.55;;;1.33;;
20972;SDS011;10645;52.370;13.314;2023-07-31T10:10:29;1.33;;;1.13;;
20972;SDS011;10645;52.370;13.314;2023-07-31T10:12:56;1.83;;;1.73;;
20972;SDS011;10645;52.370;13.314;2023-07-31T10:15:23;2.45;;;1.75;;
20972;SDS011;10645;52.370;13.314;2023-07-31T10:17:50;1.25;;;0.82;;
20972;SDS011;10645;52.370;13.314;2023-07-31T10:20:17;2.53;;;1.88;;
20972;SDS011;10645;52.370;13.314;2023-07-31T10:22:43;1.73;;;1.63;;
20972;SDS011;10645;52.370;13.314;2023-07-31T10:25:12;1.27;;;1.17;;
20972;SDS011;10645;52.370;13.314;2023-07-31T10:27:39;2.17;;;2.00;;
20972;SDS011;10645;52.370;13.314;2023-07-31T10:30:06;1.25;;;1.17;;
20972;SDS011;10645;52.370;13.314;2023-07-31T10:32:35;1.73;;;1.60;;
20972;SDS011;10645;52.370;13.314;2023-07-31T10:35:03;1.95;;;1.60;;
20972;SDS011;10645;52.370;13.314;2023-07-31T10:37:35;2.53;;;1.38;;
20972;SDS011;10645;52.370;13.314;2023-07-31T10:40:10;1.40;;;1.30;;
20972;SDS011;10645;52.370;13.314;2023-07-31T10:42:37;1.10;;;1.05;;
20972;SDS011;10645;52.370;13.314;2023-07-31T10:45:14;1.95;;;1.70;;
20972;SDS011;10645;52.370;13.314;2023-07-31T10:50:32;1.77;;;1.58;;
20972;SDS011;10645;52.370;13.314;2023-07-31T10:53:02;3.88;;;2.00;;
20972;SDS011;10645;52.370;13.314;2023-07-31T10:58:09;1.55;;;1.10;;
20972;SDS011;10645;52.370;13.314;2023-07-31T11:03:09;1.58;;;1.38;;
20972;SDS011;10645;52.370;13.314;2023-07-31T11:08:16;1.13;;;1.02;;
20972;SDS011;10645;52.370;13.314;2023-07-31T11:10:50;1.92;;;1.33;;
20972;SDS011;10645;52.370;13.314;2023-07-31T11:13:33;0.90;;;0.90;;
20972;SDS011;10645;52.370;13.314;2023-07-31T11:16:05;1.30;;;1.08;;
20972;SDS011;10645;52.370;13.314;2023-07-31T11:18:31;1.75;;;0.95;;
20972;SDS011;10645;52.370;13.314;2023-07-31T11:20:57;1.35;;;1.20;;
20972;SDS011;10645;52.370;13.314;2023-07-31T11:23:23;3.25;;;1.30;;
20972;SDS011;10645;52.370;13.314;2023-07-31T11:25:49;3.17;;;1.73;;
20972;SDS011;10645;52.370;13.314;2023-07-31T11:28:16;0.98;;;0.90;;
20972;SDS011;10645;52.370;13.314;2023-07-31T11:30:44;0.70;;;0.70;;
20972;SDS011;10645;52.370;13.314;2023-07-31T11:33:12;5.78;;;2.35;;
20972;SDS011;10645;52.370;13.314;2023-07-31T11:35:45;2.00;;;1.20;;
20972;SDS011;10645;52.370;13.314;2023-07-31T11:38:26;5.38;;;1.73;;
20972;SDS011;10645;52.370;13.314;2023-07-31T11:40:54;1.40;;;1.23;;
20972;SDS011;10645;52.370;13.314;2023-07-31T11:43:23;2.28;;;1.42;;
20972;SDS011;10645;52.370;13.314;2023-07-31T11:45:54;2.70;;;1.45;;
20972;SDS011;10645;52.370;13.314;2023-07-31T11:48:22;0.88;;;0.88;;
20972;SDS011;10645;52.370;13.314;2023-07-31T11:50:53;1.25;;;1.15;;
20972;SDS011;10645;52.370;13.314;2023-07-31T11:53:25;0.93;;;0.93;;
20972;SDS011;10645;52.370;13.314;2023-07-31T11:55:55;1.98;;;1.50;;
20972;SDS011;10645;52.370;13.314;2023-07-31T11:58:24;1.48;;;0.82;;
20972;SDS011;10645;52.370;13.314;2023-07-31T12:00:51;1.35;;;0.95;;
20972;SDS011;10645;52.370;13.314;2023-07-31T12:03:17;1.00;;;0.90;;
20972;SDS011;10645;52.370;13.314;2023-07-31T12:05:44;1.52;;;1.48;;
20972;SDS011;10645;52.370;13.314;2023-07-31T12:08:12;2.60;;;1.02;;
20972;SDS011;10645;52.370;13.314;2023-07-31T12:10:38;1.55;;;1.10;;
20972;SDS011;10645;52.370;13.314;2023-07-31T12:13:08;1.50;;;1.10;;
20972;SDS011;10645;52.370;13.314;2023-07-31T12:15:36;0.82;;;0.73;;
20972;SDS011;10645;52.370;13.314;2023-07-31T12:18:04;4.20;;;1.27;;
20972;SDS011;10645;52.370;13.314;2023-07-31T12:20:31;0.50;;;0.50;;
20972;SDS011;10645;52.370;13.314;2023-07-31T12:22:57;2.60;;;1.52;;
20972;SDS011;10645;52.370;13.314;2023-07-31T12:25:28;2.03;;;1.65;;
20972;SDS011;10645;52.370;13.314;2023-07-31T12:27:56;1.17;;;1.08;;
20972;SDS011;10645;52.370;13.314;2023-07-31T12:30:26;0.77;;;0.73;;
20972;SDS011;10645;52.370;13.314;2023-07-31T12:32:57;1.65;;;0.77;;
20972;SDS011;10645;52.370;13.314;2023-07-31T12:35:34;3.75;;;0.88;;
20972;SDS011;10645;52.370;13.314;2023-07-31T12:38:05;1.17;;;1.10;;
20972;SDS011;10645;52.370;13.314;2023-07-31T12:40:32;0.45;;;0.43;;
20972;SDS011;10645;52.370;13.314;2023-07-31T12:43:00;0.85;;;0.75;;
20972;SDS011;10645;52.370;13.314;2023-07-31T12:45:28;0.50;;;0.47;;
20972;SDS011;10645;52.370;13.314;2023-07-31T12:47:54;0.60;;;0.60;;
20972;SDS011;10645;52.370;13.314;2023-07-31T12:50:20;1.45;;;1.35;;
20972;SDS011;10645;52.370;13.314;2023-07-31T12:52:46;2.00;;;1.80;;
20972;SDS011;10645;52.370;13.314;2023-07-31T12:55:12;2.08;;;1.17;;
20972;SDS011;10645;52.370;13.314;2023-07-31T12:57:39;1.00;;;0.63;;
20972;SDS011;10645;52.370;13.314;2023-07-31T13:00:05;1.95;;;1.25;;
20972;SDS011;10645;52.370;13.314;2023-07-31T13:02:32;1.33;;;1.23;;
20972;SDS011;10645;52.370;13.314;2023-07-31T13:04:58;1.00;;;1.00;;
20972;SDS011;10645;52.370;13.314;2023-07-31T13:07:24;1.00;;;1.00;;
20972;SDS011;10645;52.370;13.314;2023-07-31T13:09:51;1.15;;;1.05;;
20972;SDS011;10645;52.370;13.314;2023-07-31T13:12:17;1.40;;;0.90;;
20972;SDS011;10645;52.370;13.314;2023-07-31T13:14:43;2.47;;;2.13;;
20972;SDS011;10645;52.370;13.314;2023-07-31T13:17:09;0.98;;;0.90;;
20972;SDS011;10645;52.370;13.314;2023-07-31T13:19:35;3.13;;;1.27;;
20972;SDS011;10645;52.370;13.314;2023-07-31T13:22:01;3.05;;;1.13;;
20972;SDS011;10645;52.370;13.314;2023-07-31T13:24:27;1.25;;;1.15;;
20972;SDS011;10645;52.370;13.314;2023-07-31T13:26:54;2.40;;;2.15;;
20972;SDS011;10645;52.370;13.314;2023-07-31T13:29:21;1.52;;;1.30;;
20972;SDS011;10645;52.370;13.314;2023-07-31T13:31:47;1.23;;;0.88;;
20972;SDS011;10645;52.370;13.314;2023-07-31T13:34:13;1.30;;;1.20;;
20972;SDS011;10645;52.370;13.314;2023-07-31T13:36:39;1.65;;;1.15;;
20972;SDS011;10645;52.370;13.314;2023-07-31T13:39:07;1.20;;;1.10;;
20972;SDS011;10645;52.370;13.314;2023-07-31T13:41:33;1.77;;;1.65;;
20972;SDS011;10645;52.370;13.314;2023-07-31T13:43:59;3.30;;;2.15;;
20972;SDS011;10645;52.370;13.314;2023-07-31T13:46:25;3.58;;;1.67;;
20972;SDS011;10645;52.370;13.314;2023-07-31T13:48:51;2.50;;;1.55;;
20972;SDS011;10645;52.370;13.314;2023-07-31T13:51:23;1.48;;;1.35;;
20972;SDS011;10645;52.370;13.314;2023-07-31T13:53:50;1.02;;;0.98;;
20972;SDS011;10645;52.370;13.314;2023-07-31T13:56:16;1.27;;;1.17;;
20972;SDS011;10645;52.370;13.314;2023-07-31T13:58:42;1.45;;;1.35;;
20972;SDS011;10645;52.370;13.314;2023-07-31T14:01:08;1.40;;;1.20;;
20972;SDS011;10645;52.370;13.314;2023-07-31T14:03:34;1.20;;;1.10;;
20972;SDS011;10645;52.370;13.314;2023-07-31T14:06:00;1.33;;;1.05;;
20972;SDS011;10645;52.370;13.314;2023-07-31T14:08:26;1.65;;;1.55;;
20972;SDS011;10645;52.370;13.314;2023-07-31T14:10:52;0.47;;;0.47;;
20972;SDS011;10645;52.370;13.314;2023-07-31T14:13:18;2.83;;;1.35;;
20972;SDS011;10645;52.370;13.314;2023-07-31T14:15:45;1.20;;;1.10;;
20972;SDS011;10645;52.370;13.314;2023-07-31T14:18:11;1.00;;;0.93;;
20972;SDS011;10645;52.370;13.314;2023-07-31T14:20:37;0.95;;;0.93;;
20972;SDS011;10645;52.370;13.314;2023-07-31T14:23:03;1.02;;;1.00;;
20972;SDS011;10645;52.370;13.314;2023-07-31T14:25:29;3.13;;;1.55;;
20972;SDS011;10645;52.370;13.314;2023-07-31T14:27:55;2.10;;;0.75;;
20972;SDS011;10645;52.370;13.314;2023-07-31T14:30:21;1.13;;;0.98;;
20972;SDS011;10645;52.370;13.314;2023-07-31T14:32:48;5.47;;;1.58;;
20972;SDS011;10645;52.370;13.314;2023-07-31T14:35:14;1.80;;;1.08;;
20972;SDS011;10645;52.370;13.314;2023-07-31T14:37:41;2.10;;;1.08;;
20972;SDS011;10645;52.370;13.314;2023-07-31T14:40:09;1.40;;;1.13;;
20972;SDS011;10645;52.370;13.314;2023-07-31T14:42:36;1.35;;;0.80;;
20972;SDS011;10645;52.370;13.314;2023-07-31T14:45:04;1.65;;;1.55;;
20972;SDS011;10645;52.370;13.314;2023-07-31T14:47:32;1.13;;;1.02;;